createdAt,value
2022-12-31T00:01:32.627Z,6.23
2022-12-31T00:04:05.592Z,2.30
2022-12-31T00:06:46.157Z,2.30
2022-12-31T00:09:17.136Z,1.93
2022-12-31T00:11:47.133Z,2.43
2022-12-31T00:14:17.104Z,2.10
2022-12-31T00:16:47.080Z,3.07
2022-12-31T00:19:19.828Z,1.87
2022-12-31T00:21:49.824Z,2.10
2022-12-31T00:24:19.754Z,2.00
2022-12-31T00:26:49.794Z,1.97
2022-12-31T00:29:19.747Z,2.60
2022-12-31T00:31:49.718Z,1.80
2022-12-31T00:34:22.320Z,2.30
2022-12-31T00:36:52.396Z,1.90
2022-12-31T00:39:22.407Z,1.83
2022-12-31T00:41:52.396Z,2.07
2022-12-31T00:44:25.181Z,2.27
2022-12-31T00:46:55.112Z,1.90
2022-12-31T00:49:27.715Z,1.77
2022-12-31T00:51:57.769Z,2.00
2022-12-31T00:54:27.810Z,1.77
2022-12-31T00:56:57.918Z,3.10
2022-12-31T00:59:28.348Z,1.63
2022-12-31T01:01:58.329Z,1.87
2022-12-31T01:04:39.921Z,2.00
2022-12-31T01:07:09.981Z,1.70
2022-12-31T01:09:39.943Z,2.40
2022-12-31T01:12:10.433Z,2.30
2022-12-31T01:14:40.444Z,1.80
2022-12-31T01:17:10.572Z,2.00
2022-12-31T01:19:47.829Z,1.70
2022-12-31T01:22:17.835Z,3.53
2022-12-31T01:24:47.833Z,1.60
2022-12-31T01:27:17.801Z,2.23
2022-12-31T01:29:53.264Z,1.90
2022-12-31T01:32:23.191Z,1.50
2022-12-31T01:34:55.752Z,1.60
2022-12-31T01:37:25.795Z,1.70
2022-12-31T01:39:55.755Z,1.73
2022-12-31T01:42:25.753Z,1.57
2022-12-31T01:44:57.940Z,1.77
2022-12-31T01:47:40.103Z,1.70
2022-12-31T01:50:17.923Z,1.30
2022-12-31T01:52:50.991Z,1.70
2022-12-31T01:55:24.420Z,2.73
2022-12-31T01:57:58.937Z,2.30
2022-12-31T02:00:29.081Z,1.20
2022-12-31T02:02:59.307Z,1.60
2022-12-31T02:05:38.489Z,2.10
2022-12-31T02:08:09.550Z,1.63
2022-12-31T02:10:39.503Z,1.47
2022-12-31T02:13:09.944Z,1.60
2022-12-31T02:15:58.992Z,1.43
2022-12-31T02:18:37.103Z,2.00
2022-12-31T02:21:37.022Z,1.40
2022-12-31T02:24:26.384Z,1.40
2022-12-31T02:27:04.324Z,1.40
2022-12-31T02:30:14.402Z,1.30
2022-12-31T02:33:05.758Z,3.10
2022-12-31T02:35:41.368Z,1.40
2022-12-31T02:38:16.972Z,1.40
2022-12-31T02:40:47.817Z,1.40
2022-12-31T02:43:17.992Z,1.77
2022-12-31T02:45:56.409Z,5.63
2022-12-31T02:48:43.541Z,1.10
2022-12-31T02:51:27.861Z,1.30
2022-12-31T02:54:20.368Z,1.00
2022-12-31T02:57:00.050Z,1.20
2022-12-31T02:59:49.157Z,1.17
2022-12-31T03:02:25.771Z,0.90
2022-12-31T03:04:57.806Z,2.40
2022-12-31T03:07:29.999Z,1.90
2022-12-31T03:10:00.971Z,1.13
2022-12-31T03:12:46.997Z,0.90
2022-12-31T03:15:22.865Z,1.00
2022-12-31T03:18:02.243Z,1.03
2022-12-31T03:20:48.292Z,3.37
2022-12-31T03:23:21.848Z,0.80
2022-12-31T03:25:49.523Z,0.90
2022-12-31T03:28:22.058Z,0.80
2022-12-31T03:30:54.446Z,0.80
2022-12-31T03:33:28.197Z,0.90
2022-12-31T03:35:58.076Z,0.87
2022-12-31T03:38:28.085Z,0.83
2022-12-31T03:40:58.135Z,0.70
2022-12-31T03:43:28.828Z,0.80
2022-12-31T03:46:01.586Z,0.80
2022-12-31T03:48:34.285Z,0.70
2022-12-31T03:51:04.223Z,1.17
2022-12-31T03:53:35.712Z,0.80
2022-12-31T03:56:05.680Z,0.90
2022-12-31T03:58:35.655Z,0.80
2022-12-31T04:01:05.615Z,0.73
2022-12-31T04:03:38.217Z,1.80
2022-12-31T04:06:08.455Z,0.90
2022-12-31T04:08:38.397Z,0.63
2022-12-31T04:11:08.331Z,1.00
2022-12-31T04:13:38.240Z,0.97
2022-12-31T04:16:09.146Z,0.80
2022-12-31T04:18:41.829Z,0.80
2022-12-31T04:21:12.018Z,0.80
2022-12-31T04:23:43.363Z,0.97
2022-12-31T04:26:13.352Z,0.80
2022-12-31T04:28:59.952Z,2.10
2022-12-31T04:31:30.666Z,0.80
2022-12-31T04:34:03.249Z,0.70
2022-12-31T04:36:33.212Z,0.70
2022-12-31T04:39:03.147Z,1.13
2022-12-31T04:41:33.050Z,1.53
2022-12-31T04:44:03.247Z,2.40
2022-12-31T04:46:50.148Z,0.70
2022-12-31T04:49:22.841Z,0.80
2022-12-31T04:51:52.795Z,0.90
2022-12-31T04:54:22.714Z,0.80
2022-12-31T04:56:52.637Z,0.60
2022-12-31T04:59:22.550Z,0.90
2022-12-31T05:01:52.526Z,0.87
2022-12-31T05:04:25.097Z,0.80
2022-12-31T05:06:55.039Z,1.43
2022-12-31T05:09:27.597Z,0.70
2022-12-31T05:11:57.670Z,0.70
2022-12-31T05:14:45.679Z,1.63
2022-12-31T05:17:15.863Z,1.10
2022-12-31T05:19:48.360Z,0.70
2022-12-31T05:22:34.732Z,0.87
2022-12-31T05:25:04.618Z,0.77
2022-12-31T05:27:34.656Z,0.70
2022-12-31T05:30:04.611Z,1.00
2022-12-31T05:32:34.818Z,0.63
2022-12-31T05:35:08.889Z,0.90
2022-12-31T05:37:39.074Z,0.73
2022-12-31T05:40:10.522Z,0.97
2022-12-31T05:42:40.419Z,0.73
2022-12-31T05:45:13.490Z,0.80
2022-12-31T05:47:43.757Z,0.70
2022-12-31T05:50:18.174Z,0.87
2022-12-31T05:52:48.797Z,2.10
2022-12-31T05:55:18.894Z,3.93
2022-12-31T05:57:48.818Z,1.10
2022-12-31T06:00:19.428Z,2.60
2022-12-31T06:02:49.485Z,3.53
2022-12-31T06:05:26.061Z,4.07
2022-12-31T06:07:56.453Z,1.70
2022-12-31T06:10:26.416Z,3.03
2022-12-31T06:12:56.372Z,1.40
2022-12-31T06:15:28.038Z,2.17
2022-12-31T06:17:58.151Z,1.40
2022-12-31T06:20:30.713Z,1.27
2022-12-31T06:23:00.604Z,1.67
2022-12-31T06:25:30.520Z,1.10
2022-12-31T06:28:00.522Z,1.37
2022-12-31T06:30:30.472Z,2.80
2022-12-31T06:33:00.438Z,1.70
2022-12-31T06:35:32.959Z,1.10
2022-12-31T06:38:02.880Z,1.30
2022-12-31T06:40:32.836Z,1.00
2022-12-31T06:43:02.766Z,1.10
2022-12-31T06:45:32.681Z,1.10
2022-12-31T06:48:02.757Z,1.00
2022-12-31T06:50:35.289Z,0.80
2022-12-31T06:53:05.290Z,0.80
2022-12-31T06:55:36.128Z,0.80
2022-12-31T06:58:08.869Z,0.80
2022-12-31T07:00:39.137Z,1.23
2022-12-31T07:03:25.238Z,0.93
2022-12-31T07:06:04.472Z,0.80
2022-12-31T07:08:48.840Z,0.70
2022-12-31T07:11:24.289Z,0.63
2022-12-31T07:14:13.291Z,0.63
2022-12-31T07:17:01.722Z,0.67
2022-12-31T07:19:42.487Z,0.60
2022-12-31T07:22:17.717Z,0.70
2022-12-31T07:24:48.325Z,0.70
2022-12-31T07:27:52.921Z,0.80
2022-12-31T07:30:25.901Z,1.40
2022-12-31T07:33:14.087Z,0.70
2022-12-31T07:35:57.004Z,0.70
2022-12-31T07:38:39.344Z,2.93
2022-12-31T07:41:19.621Z,0.60
2022-12-31T07:44:03.997Z,1.30
2022-12-31T07:46:40.614Z,1.00
2022-12-31T07:49:14.075Z,0.70
2022-12-31T07:51:45.514Z,0.80
2022-12-31T07:54:44.433Z,0.70
2022-12-31T07:57:16.049Z,3.10
2022-12-31T08:00:00.734Z,0.70
2022-12-31T08:02:51.255Z,0.70
2022-12-31T08:05:28.053Z,0.80
2022-12-31T08:08:08.911Z,0.80
2022-12-31T08:10:48.055Z,0.63
2022-12-31T08:13:19.989Z,0.70
2022-12-31T08:15:50.688Z,0.70
2022-12-31T08:18:21.124Z,0.90
2022-12-31T08:21:03.527Z,2.27
2022-12-31T08:23:41.020Z,0.60
2022-12-31T08:26:25.759Z,1.17
2022-12-31T08:29:10.847Z,0.80
2022-12-31T08:31:51.007Z,2.13
2022-12-31T08:34:28.330Z,0.70
2022-12-31T08:37:07.422Z,0.67
2022-12-31T08:39:55.255Z,0.60
2022-12-31T08:42:34.152Z,0.70
2022-12-31T08:45:12.929Z,0.87
2022-12-31T08:47:56.447Z,4.10
2022-12-31T08:50:30.856Z,0.60
2022-12-31T08:53:19.059Z,0.90
2022-12-31T08:55:50.610Z,0.83
2022-12-31T08:58:38.348Z,0.80
2022-12-31T09:01:09.922Z,0.73
2022-12-31T09:03:54.482Z,0.90
2022-12-31T09:06:32.137Z,3.27
2022-12-31T09:09:10.291Z,0.70
2022-12-31T09:11:52.279Z,1.37
2022-12-31T09:14:43.264Z,1.27
2022-12-31T09:17:35.185Z,0.93
2022-12-31T09:20:06.689Z,1.63
2022-12-31T09:22:37.073Z,0.70
2022-12-31T09:25:07.789Z,1.00
2022-12-31T09:27:45.432Z,1.20
2022-12-31T09:30:20.500Z,1.00
2022-12-31T09:33:01.075Z,0.70
2022-12-31T09:35:39.392Z,1.00
2022-12-31T09:38:19.526Z,0.80
2022-12-31T09:40:58.650Z,1.10
2022-12-31T09:44:03.415Z,1.00
2022-12-31T09:47:00.713Z,0.80
2022-12-31T09:50:16.060Z,0.93
2022-12-31T09:52:59.273Z,0.70
2022-12-31T09:55:36.720Z,2.50
2022-12-31T09:58:19.420Z,1.60
2022-12-31T10:00:55.728Z,0.80
2022-12-31T10:03:46.559Z,0.77
2022-12-31T10:06:30.596Z,0.90
2022-12-31T10:09:30.127Z,1.70
2022-12-31T10:12:18.879Z,0.80
2022-12-31T10:15:05.874Z,0.80
2022-12-31T10:17:51.761Z,0.80
2022-12-31T10:20:50.667Z,1.90
2022-12-31T10:23:55.072Z,0.80
2022-12-31T10:26:53.111Z,2.43
2022-12-31T10:29:32.643Z,0.83
2022-12-31T10:32:17.193Z,2.33
2022-12-31T10:35:02.914Z,1.40
2022-12-31T10:37:45.933Z,1.57
2022-12-31T10:40:27.547Z,2.70
2022-12-31T10:43:52.787Z,1.33
2022-12-31T10:47:02.902Z,0.90
2022-12-31T10:50:25.636Z,1.50
2022-12-31T10:53:28.371Z,3.37
2022-12-31T10:56:33.253Z,2.97
2022-12-31T10:59:33.352Z,1.67
2022-12-31T11:02:33.777Z,2.03
2022-12-31T11:05:33.751Z,2.23
2022-12-31T11:08:26.810Z,4.13
2022-12-31T11:11:10.200Z,1.57
2022-12-31T11:14:14.492Z,2.10
2022-12-31T11:17:00.475Z,1.10
2022-12-31T11:19:54.414Z,0.90
2022-12-31T11:22:58.229Z,1.80
2022-12-31T11:25:43.478Z,1.63
2022-12-31T11:28:37.381Z,1.63
2022-12-31T11:31:30.653Z,2.60
2022-12-31T11:34:22.397Z,1.30
2022-12-31T11:37:07.561Z,1.47
2022-12-31T11:39:46.086Z,1.30
2022-12-31T11:42:26.607Z,3.97
2022-12-31T11:45:03.053Z,2.00
2022-12-31T11:50:57.925Z,1.27
2022-12-31T11:53:39.756Z,1.67
2022-12-31T11:56:19.803Z,1.20
2022-12-31T11:58:55.096Z,1.30
2022-12-31T12:01:29.789Z,2.77
2022-12-31T12:03:59.858Z,1.37
2022-12-31T12:06:32.894Z,2.57
2022-12-31T12:09:07.222Z,2.67
2022-12-31T12:11:41.054Z,1.40
2022-12-31T12:14:30.919Z,3.73
2022-12-31T12:17:05.171Z,3.73
2022-12-31T12:19:37.273Z,3.10
2022-12-31T12:22:14.371Z,2.40
2022-12-31T12:24:55.733Z,1.27
2022-12-31T12:27:30.333Z,2.43
2022-12-31T12:30:11.762Z,2.23
2022-12-31T12:32:41.840Z,1.80
2022-12-31T12:35:19.123Z,2.90
2022-12-31T12:37:49.094Z,1.93
2022-12-31T12:40:33.081Z,0.90
2022-12-31T12:43:06.946Z,1.80
2022-12-31T12:45:51.699Z,1.50
2022-12-31T12:48:28.891Z,1.10
2022-12-31T12:50:58.940Z,1.53
2022-12-31T12:53:48.136Z,1.43
2022-12-31T12:56:27.604Z,1.80
2022-12-31T12:59:15.943Z,3.07
2022-12-31T13:01:56.552Z,1.80
2022-12-31T13:04:47.708Z,2.60
2022-12-31T13:07:28.316Z,3.13
2022-12-31T13:10:18.752Z,1.50
2022-12-31T13:15:56.905Z,2.50
2022-12-31T13:18:42.665Z,1.87
2022-12-31T13:21:25.502Z,7.80
2022-12-31T13:24:06.013Z,2.73
2022-12-31T13:26:42.149Z,1.20
2022-12-31T13:29:21.851Z,1.33
2022-12-31T13:31:53.540Z,1.53
2022-12-31T13:34:34.429Z,4.33
2022-12-31T13:37:09.879Z,1.80
2022-12-31T13:39:44.863Z,1.23
2022-12-31T13:42:25.401Z,1.50
2022-12-31T13:44:59.737Z,2.90
2022-12-31T13:47:38.193Z,4.63
2022-12-31T13:50:23.746Z,1.23
2022-12-31T13:52:59.911Z,2.53
2022-12-31T13:55:34.802Z,2.50
2022-12-31T13:58:14.273Z,3.53
2022-12-31T14:00:51.313Z,3.43
2022-12-31T14:03:39.688Z,2.30
2022-12-31T14:06:18.026Z,2.90
2022-12-31T14:08:49.008Z,1.37
2022-12-31T14:11:27.863Z,2.10
2022-12-31T14:14:10.294Z,2.53
2022-12-31T14:16:47.043Z,1.23
2022-12-31T14:19:31.573Z,3.40
2022-12-31T14:22:13.475Z,1.20
2022-12-31T14:24:47.741Z,1.60
2022-12-31T14:27:22.831Z,1.50
2022-12-31T14:29:57.261Z,3.27
2022-12-31T14:33:00.188Z,5.27
2022-12-31T14:35:42.269Z,2.43
2022-12-31T14:38:27.211Z,2.37
2022-12-31T14:41:11.555Z,2.40
2022-12-31T14:43:52.475Z,2.13
2022-12-31T14:46:31.819Z,4.87
2022-12-31T14:49:17.623Z,4.37
2022-12-31T14:51:59.036Z,2.07
2022-12-31T14:54:38.070Z,2.63
2022-12-31T14:57:23.966Z,3.10
2022-12-31T14:59:56.855Z,2.70
2022-12-31T15:02:30.359Z,2.30
2022-12-31T15:05:17.528Z,2.10
2022-12-31T15:08:02.189Z,2.00
2022-12-31T15:10:46.810Z,1.80
2022-12-31T15:13:30.778Z,2.70
2022-12-31T15:16:14.110Z,4.03
2022-12-31T15:19:06.188Z,4.40
2022-12-31T15:21:57.864Z,3.10
2022-12-31T15:24:30.926Z,2.27
2022-12-31T15:27:05.851Z,4.27
2022-12-31T15:29:39.557Z,4.83
2022-12-31T15:32:19.264Z,3.43
2022-12-31T15:34:49.560Z,3.40
2022-12-31T15:37:34.255Z,4.00
2022-12-31T15:40:19.511Z,3.37
2022-12-31T15:42:56.876Z,3.77
2022-12-31T15:45:34.343Z,3.10
2022-12-31T15:48:09.358Z,2.90
2022-12-31T15:50:42.108Z,4.50
2022-12-31T15:53:19.250Z,4.53
2022-12-31T15:55:54.904Z,3.77
2022-12-31T15:58:32.640Z,4.57
2022-12-31T16:01:11.763Z,5.73
2022-12-31T16:03:47.589Z,6.37
2022-12-31T16:06:19.459Z,6.17
2022-12-31T16:08:52.382Z,7.57
2022-12-31T16:11:22.368Z,10.50
2022-12-31T16:13:58.033Z,9.90
2022-12-31T16:16:31.622Z,8.13
2022-12-31T16:19:03.657Z,7.50
2022-12-31T16:21:35.844Z,9.50
2022-12-31T16:24:08.721Z,8.37
2022-12-31T16:26:46.792Z,9.37
2022-12-31T16:29:21.683Z,7.53
2022-12-31T16:31:53.789Z,15.17
2022-12-31T16:34:25.476Z,16.23
2022-12-31T16:37:00.571Z,10.77
2022-12-31T16:39:33.049Z,10.27
2022-12-31T16:42:20.591Z,7.87
2022-12-31T16:44:55.528Z,6.23
2022-12-31T16:47:36.788Z,10.80
2022-12-31T16:50:18.846Z,21.60
2022-12-31T16:52:51.968Z,24.20
2022-12-31T16:55:26.409Z,22.60
2022-12-31T16:57:59.673Z,9.03
2022-12-31T17:00:32.455Z,10.13
2022-12-31T17:03:09.648Z,7.63
2022-12-31T17:05:58.891Z,9.87
2022-12-31T17:08:31.513Z,13.50
2022-12-31T17:11:01.541Z,10.40
2022-12-31T17:13:34.274Z,10.00
2022-12-31T17:16:07.407Z,11.57
2022-12-31T17:18:40.976Z,10.63
2022-12-31T17:21:13.239Z,7.40
2022-12-31T17:23:44.708Z,13.10
2022-12-31T17:26:17.163Z,7.37
2022-12-31T17:28:50.336Z,8.00
2022-12-31T17:31:35.124Z,9.97
2022-12-31T17:34:25.268Z,6.13
2022-12-31T17:37:04.069Z,13.57
2022-12-31T17:39:45.709Z,19.03
2022-12-31T17:42:27.318Z,9.53
2022-12-31T17:45:00.179Z,9.30
2022-12-31T17:47:40.222Z,8.63
2022-12-31T17:50:23.261Z,8.53
2022-12-31T17:52:53.227Z,5.07
2022-12-31T17:55:23.327Z,5.13
2022-12-31T17:57:55.938Z,23.00
2022-12-31T18:00:28.018Z,6.23
2022-12-31T18:03:01.285Z,21.20
2022-12-31T18:05:31.345Z,11.33
2022-12-31T18:08:01.346Z,10.57
2022-12-31T18:10:35.157Z,7.80
2022-12-31T18:13:07.830Z,8.03
2022-12-31T18:15:37.822Z,10.97
2022-12-31T18:18:24.816Z,6.60
2022-12-31T18:20:58.458Z,10.97
2022-12-31T18:23:32.003Z,7.57
2022-12-31T18:26:04.832Z,8.13
2022-12-31T18:28:34.853Z,9.97
2022-12-31T18:31:04.930Z,8.27
2022-12-31T18:33:37.840Z,10.10
2022-12-31T18:36:13.031Z,7.30
2022-12-31T18:38:43.822Z,8.07
2022-12-31T18:41:19.618Z,8.17
2022-12-31T18:43:50.080Z,8.27
2022-12-31T18:46:22.668Z,7.83
2022-12-31T18:48:55.282Z,8.80
2022-12-31T18:51:32.346Z,9.03
2022-12-31T18:54:02.777Z,10.63
2022-12-31T18:56:32.764Z,11.47
2022-12-31T18:59:02.719Z,9.80
2022-12-31T19:01:34.832Z,19.10
2022-12-31T19:04:19.901Z,29.83
2022-12-31T19:06:51.847Z,16.83
2022-12-31T19:12:14.344Z,12.00
2022-12-31T19:14:45.543Z,21.57
2022-12-31T19:17:15.522Z,12.80
2022-12-31T19:19:48.058Z,14.33
2022-12-31T19:22:18.659Z,15.60
2022-12-31T19:24:48.629Z,15.90
2022-12-31T19:27:18.651Z,15.43
2022-12-31T19:29:48.594Z,21.23
2022-12-31T19:32:18.685Z,16.73
2022-12-31T19:34:51.336Z,17.67
2022-12-31T19:37:21.385Z,19.27
2022-12-31T19:39:51.407Z,27.07
2022-12-31T19:42:21.669Z,22.60
2022-12-31T19:44:51.633Z,22.47
2022-12-31T19:47:21.584Z,16.37
2022-12-31T19:49:54.273Z,13.43
2022-12-31T19:52:24.233Z,16.37
2022-12-31T19:54:54.172Z,15.93
2022-12-31T19:57:24.166Z,13.47
2022-12-31T19:59:54.110Z,15.63
2022-12-31T20:02:24.426Z,20.77
2022-12-31T20:05:11.143Z,13.87
2022-12-31T20:07:41.682Z,14.37
2022-12-31T20:10:12.155Z,14.37
2022-12-31T20:12:44.547Z,13.13
2022-12-31T20:15:14.843Z,17.13
2022-12-31T20:17:45.319Z,14.97
2022-12-31T20:20:17.982Z,46.40
2022-12-31T20:22:47.957Z,14.33
2022-12-31T20:25:18.361Z,15.13
2022-12-31T20:27:48.375Z,15.43
2022-12-31T20:30:19.977Z,12.87
2022-12-31T20:32:49.991Z,18.07
2022-12-31T20:35:22.777Z,15.00
2022-12-31T20:37:52.890Z,17.20
2022-12-31T20:40:23.009Z,26.30
2022-12-31T20:42:55.673Z,20.93
2022-12-31T20:45:25.712Z,20.37
2022-12-31T20:47:55.740Z,20.90
2022-12-31T20:50:28.479Z,26.00
2022-12-31T20:52:58.459Z,23.97
2022-12-31T20:55:46.348Z,17.23
2022-12-31T20:58:16.455Z,41.33
2022-12-31T21:00:50.886Z,21.87
2022-12-31T21:04:02.243Z,24.33
2022-12-31T21:06:14.886Z,26.50
2022-12-31T21:08:45.534Z,33.70
2022-12-31T21:11:28.137Z,32.77
2022-12-31T21:13:58.790Z,32.40
2022-12-31T21:16:29.649Z,31.33
2022-12-31T21:18:59.600Z,34.30
2022-12-31T21:21:32.214Z,36.23
2022-12-31T21:24:02.170Z,19.20
2022-12-31T21:26:35.292Z,20.20
2022-12-31T21:29:05.303Z,23.73
2022-12-31T21:31:35.337Z,19.10
2022-12-31T21:34:05.339Z,25.07
2022-12-31T21:36:37.992Z,30.20
2022-12-31T21:39:07.964Z,19.93
2022-12-31T21:41:50.403Z,29.33
2022-12-31T21:44:21.090Z,19.57
2022-12-31T21:47:33.237Z,17.90
2022-12-31T21:49:42.685Z,17.23
2022-12-31T21:52:34.040Z,20.20
2022-12-31T21:55:18.395Z,13.20
2022-12-31T22:00:53.349Z,12.30
2022-12-31T22:03:31.861Z,9.70
2022-12-31T22:06:05.859Z,14.27
2022-12-31T22:08:39.105Z,10.07
2022-12-31T22:11:09.352Z,27.20
2022-12-31T22:13:40.283Z,13.20
2022-12-31T22:16:11.373Z,9.00
2022-12-31T22:18:42.991Z,29.93
2022-12-31T22:21:19.022Z,14.07
2022-12-31T22:23:54.424Z,13.77
2022-12-31T22:26:26.541Z,26.23
2022-12-31T22:28:59.952Z,19.50
2022-12-31T22:31:32.080Z,14.73
2022-12-31T22:34:02.451Z,14.37
2022-12-31T22:36:32.966Z,14.40
2022-12-31T22:39:05.705Z,13.87
2022-12-31T22:41:37.199Z,18.33
2022-12-31T22:44:07.571Z,11.87
2022-12-31T22:46:39.852Z,10.23
2022-12-31T22:49:09.941Z,10.63
2022-12-31T22:51:55.848Z,12.07
2022-12-31T22:54:44.151Z,14.40
2022-12-31T22:57:19.832Z,17.37
2022-12-31T22:59:51.375Z,11.60
2022-12-31T23:02:39.873Z,30.27
2022-12-31T23:05:16.470Z,26.73
2022-12-31T23:07:46.867Z,81.27
2022-12-31T23:10:32.108Z,99.63
2022-12-31T23:13:14.437Z,126.53
2022-12-31T23:15:59.909Z,113.50
2022-12-31T23:18:42.304Z,152.40
2022-12-31T23:21:25.543Z,131.20
2022-12-31T23:23:56.449Z,108.67
2022-12-31T23:26:29.172Z,129.90
2022-12-31T23:29:02.159Z,139.13
2022-12-31T23:31:32.514Z,198.93
2022-12-31T23:34:02.824Z,178.50
2022-12-31T23:36:40.823Z,167.73
2022-12-31T23:39:11.082Z,175.57
2022-12-31T23:41:44.130Z,129.47
2022-12-31T23:44:14.882Z,115.37
2022-12-31T23:46:45.148Z,116.23
2022-12-31T23:49:15.210Z,114.23
2022-12-31T23:51:45.495Z,113.23
2022-12-31T23:54:15.961Z,95.83
2022-12-31T23:56:48.625Z,83.03
2022-12-31T23:59:18.839Z,77.83
